createdAt,value
2023-05-05T00:00:00.175Z,19.52
2023-05-05T00:02:26.968Z,19.40
2023-05-05T00:04:53.811Z,18.85
2023-05-05T00:07:20.719Z,19.35
2023-05-05T00:09:47.457Z,19.38
2023-05-05T00:12:14.162Z,19.38
2023-05-05T00:14:41.406Z,19.25
2023-05-05T00:17:08.165Z,19.23
2023-05-05T00:19:34.938Z,19.51
2023-05-05T00:22:01.647Z,19.23
2023-05-05T00:24:28.390Z,19.10
2023-05-05T00:26:55.133Z,18.70
2023-05-05T00:29:21.897Z,18.94
2023-05-05T00:31:51.322Z,18.22
2023-05-05T00:34:18.131Z,18.22
2023-05-05T00:36:44.899Z,18.17
2023-05-05T00:39:11.705Z,18.18
2023-05-05T00:41:38.461Z,18.46
2023-05-05T00:44:05.308Z,18.27
2023-05-05T00:46:32.094Z,17.75
2023-05-05T00:48:58.837Z,17.00
2023-05-05T00:51:25.652Z,17.69
2023-05-05T00:53:52.349Z,17.20
2023-05-05T00:56:19.520Z,17.53
2023-05-05T00:58:46.324Z,17.45
2023-05-05T01:01:13.591Z,17.54
2023-05-05T01:03:40.628Z,17.35
2023-05-05T01:06:35.695Z,17.47
2023-05-05T01:09:14.476Z,16.86
2023-05-05T01:12:06.241Z,17.06
2023-05-05T01:14:38.800Z,16.97
2023-05-05T01:17:22.014Z,16.72
2023-05-05T01:19:54.584Z,16.53
2023-05-05T01:22:24.348Z,16.58
2023-05-05T01:25:23.632Z,16.72
2023-05-05T01:28:19.352Z,16.27
2023-05-05T01:30:57.812Z,16.38
2023-05-05T01:33:25.791Z,16.26
2023-05-05T01:35:54.004Z,16.05
2023-05-05T01:38:34.698Z,16.12
2023-05-05T01:41:05.121Z,15.48
2023-05-05T01:43:32.760Z,15.04
2023-05-05T01:45:59.632Z,15.18
2023-05-05T01:48:26.397Z,15.18
2023-05-05T01:50:53.389Z,14.81
2023-05-05T01:53:20.246Z,15.21
2023-05-05T01:55:47.043Z,15.11
2023-05-05T01:58:13.844Z,14.98
2023-05-05T02:00:40.721Z,14.66
2023-05-05T02:03:10.782Z,14.40
2023-05-05T02:05:38.629Z,14.56
2023-05-05T02:08:05.627Z,14.63
2023-05-05T02:10:32.311Z,14.77
2023-05-05T02:12:59.838Z,14.11
2023-05-05T02:15:26.572Z,14.22
2023-05-05T02:17:53.335Z,14.09
2023-05-05T02:20:20.049Z,13.60
2023-05-05T02:22:46.964Z,13.84
2023-05-05T02:25:13.676Z,13.84
2023-05-05T02:27:41.736Z,13.84
2023-05-05T02:30:09.958Z,14.08
2023-05-05T02:32:41.269Z,14.21
2023-05-05T02:35:14.491Z,13.58
2023-05-05T02:37:46.854Z,13.57
2023-05-05T02:40:13.625Z,13.27
2023-05-05T02:42:41.509Z,13.29
2023-05-05T02:45:11.141Z,13.20
2023-05-05T02:47:38.289Z,13.30
2023-05-05T02:50:05.777Z,13.20
2023-05-05T02:52:32.918Z,12.83
2023-05-05T02:54:59.776Z,12.68
2023-05-05T02:57:41.280Z,12.84
2023-05-05T03:00:30.273Z,13.17
2023-05-05T03:03:06.288Z,12.57
2023-05-05T03:05:40.710Z,12.69
2023-05-05T03:08:14.106Z,12.15
2023-05-05T03:10:46.512Z,12.72
2023-05-05T03:13:13.484Z,12.18
2023-05-05T03:15:43.401Z,12.11
2023-05-05T03:18:10.236Z,12.47
2023-05-05T03:20:40.183Z,12.19
2023-05-05T03:23:07.242Z,12.02
2023-05-05T03:25:46.428Z,12.65
2023-05-05T03:28:14.250Z,11.71
2023-05-05T03:30:41.350Z,12.16
2023-05-05T03:33:09.892Z,11.79
2023-05-05T03:35:36.717Z,11.74
2023-05-05T03:38:03.459Z,11.18
2023-05-05T03:40:43.061Z,11.61
2023-05-05T03:43:11.933Z,11.20
2023-05-05T03:45:38.666Z,11.99
2023-05-05T03:48:06.133Z,11.04
2023-05-05T03:50:32.831Z,11.02
2023-05-05T03:52:59.530Z,11.21
2023-05-05T03:55:26.294Z,10.93
2023-05-05T03:57:53.027Z,11.23
2023-05-05T04:00:19.855Z,11.45
2023-05-05T04:02:46.668Z,10.93
2023-05-05T04:05:13.494Z,11.09
2023-05-05T04:07:40.197Z,11.10
2023-05-05T04:10:10.843Z,10.96
2023-05-05T04:12:37.674Z,10.84
2023-05-05T04:17:30.182Z,10.88
2023-05-05T04:19:56.929Z,11.01
2023-05-05T04:22:23.649Z,10.73
2023-05-05T04:24:50.322Z,10.07
2023-05-05T04:27:17.006Z,10.05
2023-05-05T04:29:43.666Z,10.15
2023-05-05T04:32:10.339Z,10.14
2023-05-05T04:34:37.008Z,10.24
2023-05-05T04:37:03.722Z,9.84
2023-05-05T04:39:30.442Z,10.10
2023-05-05T04:41:57.237Z,9.23
2023-05-05T04:44:24.059Z,9.63
2023-05-05T04:46:50.850Z,9.87
2023-05-05T04:49:17.650Z,9.26
2023-05-05T04:51:44.374Z,10.14
2023-05-05T04:54:11.156Z,10.26
2023-05-05T04:56:37.841Z,10.01
2023-05-05T04:59:04.508Z,10.28
2023-05-05T05:01:31.289Z,10.24
2023-05-05T05:03:58.068Z,10.32
2023-05-05T05:06:24.814Z,10.05
2023-05-05T05:08:51.470Z,10.48
2023-05-05T05:11:18.222Z,10.16
2023-05-05T05:13:44.896Z,10.23
2023-05-05T05:16:11.681Z,10.28
2023-05-05T05:18:38.463Z,10.02
2023-05-05T05:21:05.259Z,10.19
2023-05-05T05:23:32.041Z,10.37
2023-05-05T05:25:58.793Z,9.79
2023-05-05T05:28:25.509Z,9.93
2023-05-05T05:30:52.266Z,9.50
2023-05-05T05:33:18.971Z,9.39
2023-05-05T05:35:45.969Z,9.55
2023-05-05T05:38:12.761Z,9.07
2023-05-05T05:40:39.625Z,8.88
2023-05-05T05:43:06.315Z,8.74
2023-05-05T05:45:33.085Z,8.86
2023-05-05T05:47:59.873Z,8.84
2023-05-05T05:50:26.567Z,8.87
2023-05-05T05:52:53.301Z,8.54
2023-05-05T05:55:20.085Z,8.47
2023-05-05T07:23:44.889Z,7.15
2023-05-05T07:26:11.750Z,7.07
2023-05-05T07:28:38.617Z,7.11
2023-05-05T07:31:05.438Z,7.12
2023-05-05T07:33:32.153Z,6.81
2023-05-05T07:35:58.904Z,6.97
2023-05-05T07:38:25.628Z,7.12
2023-05-05T07:40:52.382Z,7.60
2023-05-05T07:43:19.122Z,7.11
2023-05-05T07:45:46.136Z,6.98
2023-05-05T07:48:12.877Z,6.87
2023-05-05T07:50:39.692Z,6.77
2023-05-05T07:53:14.308Z,7.09
2023-05-05T07:55:41.990Z,7.13
2023-05-05T07:58:08.779Z,7.05
2023-05-05T08:00:35.578Z,6.80
2023-05-05T08:03:02.392Z,7.06
2023-05-05T08:05:29.312Z,6.88
2023-05-05T08:07:56.032Z,6.41
2023-05-05T08:10:22.903Z,6.57
2023-05-05T08:12:49.674Z,6.69
2023-05-05T08:15:16.598Z,6.51
2023-05-05T08:17:44.716Z,6.63
2023-05-05T08:20:11.863Z,6.68
2023-05-05T08:22:38.568Z,6.65
2023-05-05T08:25:05.882Z,6.40
2023-05-05T08:27:32.855Z,6.40
2023-05-05T08:29:59.673Z,6.61
2023-05-05T08:32:27.853Z,6.65
2023-05-05T08:34:56.626Z,6.37
2023-05-05T08:37:23.360Z,6.43
2023-05-05T08:39:50.065Z,6.26
2023-05-05T08:42:28.973Z,6.40
2023-05-05T08:45:02.745Z,6.37
2023-05-05T08:47:32.468Z,6.49
2023-05-05T08:49:59.204Z,6.37
2023-05-05T08:52:25.997Z,6.24
2023-05-05T08:54:57.914Z,6.01
2023-05-05T08:57:38.767Z,6.13
2023-05-05T09:00:06.147Z,6.12
2023-05-05T09:02:32.937Z,6.41
2023-05-05T09:04:59.844Z,6.20
2023-05-05T09:07:26.623Z,5.90
2023-05-05T09:09:53.349Z,6.12
2023-05-05T09:12:20.171Z,6.07
2023-05-05T09:14:47.000Z,5.90
2023-05-05T09:17:26.465Z,6.09
2023-05-05T09:20:06.485Z,6.33
2023-05-05T09:22:43.488Z,6.22
2023-05-05T09:25:11.743Z,5.71
2023-05-05T09:27:40.276Z,5.98
2023-05-05T09:30:07.480Z,5.76
2023-05-05T09:32:44.846Z,5.72
2023-05-05T09:35:11.653Z,6.09
2023-05-05T09:37:38.327Z,5.77
2023-05-05T09:40:05.692Z,5.85
2023-05-05T09:42:32.404Z,5.58
2023-05-05T09:45:00.039Z,5.96
2023-05-05T09:47:36.711Z,5.69
2023-05-05T09:50:03.763Z,5.64
2023-05-05T09:52:30.570Z,5.52
2023-05-05T09:54:57.315Z,5.21
2023-05-05T09:57:33.018Z,5.84
2023-05-05T10:00:01.179Z,5.75
2023-05-05T10:02:32.114Z,5.58
2023-05-05T10:05:08.911Z,5.64
2023-05-05T10:07:36.266Z,5.52
2023-05-05T10:10:10.425Z,5.24
2023-05-05T10:12:37.437Z,5.17
2023-05-05T10:15:05.520Z,5.43
2023-05-05T10:17:33.238Z,5.17
2023-05-05T10:20:00.804Z,5.14
2023-05-05T10:22:28.950Z,5.06
2023-05-05T10:25:30.678Z,5.31
2023-05-05T10:28:00.005Z,4.98
2023-05-05T10:30:29.927Z,5.03
2023-05-05T10:33:30.927Z,5.13
2023-05-05T10:36:01.011Z,5.09
2023-05-05T10:38:29.284Z,4.98
2023-05-05T10:40:56.449Z,4.85
2023-05-05T10:43:23.287Z,4.78
2023-05-05T10:45:50.201Z,4.78
2023-05-05T10:48:24.716Z,5.01
2023-05-05T10:50:54.008Z,4.73
2023-05-05T10:53:29.134Z,5.11
2023-05-05T10:56:16.568Z,4.89
2023-05-05T10:58:55.463Z,4.57
2023-05-05T11:01:30.385Z,4.57
2023-05-05T11:04:24.180Z,4.75
2023-05-05T11:07:14.624Z,4.49
2023-05-05T11:09:57.969Z,4.40
2023-05-05T11:12:24.724Z,4.69
2023-05-05T14:11:17.890Z,3.35
2023-05-05T14:13:44.738Z,3.70
2023-05-05T14:16:11.464Z,3.66
2023-05-05T14:18:38.226Z,3.23
2023-05-05T14:21:04.965Z,3.59
2023-05-05T14:23:31.709Z,3.46
2023-05-05T14:25:58.437Z,3.65
2023-05-05T14:28:25.200Z,3.51
2023-05-05T14:30:51.993Z,3.30
2023-05-05T14:33:18.650Z,3.68
2023-05-05T14:35:45.381Z,3.57
2023-05-05T14:38:12.124Z,3.64
2023-05-05T14:40:38.858Z,3.74
2023-05-05T14:43:05.573Z,3.39
2023-05-05T14:45:32.363Z,3.60
2023-05-05T14:47:59.338Z,3.53
2023-05-05T14:50:26.123Z,3.67
2023-05-05T14:52:52.868Z,3.29
2023-05-05T14:55:19.842Z,3.47
2023-05-05T14:57:46.581Z,3.55
2023-05-05T15:00:13.741Z,3.53
2023-05-05T15:02:40.692Z,3.17
2023-05-05T15:05:08.204Z,3.48
2023-05-05T15:07:35.110Z,3.32
2023-05-05T15:10:01.856Z,3.38
2023-05-05T15:12:28.638Z,3.35
2023-05-05T15:14:55.401Z,3.24
2023-05-05T15:17:22.306Z,3.29
2023-05-05T15:19:49.057Z,3.17
2023-05-05T15:22:15.852Z,3.26
2023-05-05T15:24:42.583Z,3.30
2023-05-05T15:27:09.336Z,3.06
2023-05-05T15:29:36.008Z,3.07
2023-05-05T15:32:02.755Z,3.21
2023-05-05T15:34:29.657Z,3.05
2023-05-05T15:36:56.398Z,2.98
2023-05-05T15:39:23.181Z,3.07
2023-05-05T15:41:49.958Z,3.07
2023-05-05T15:44:16.653Z,2.85
2023-05-05T15:46:43.357Z,2.98
2023-05-05T15:49:10.118Z,3.03
2023-05-05T15:51:36.859Z,3.18
2023-05-05T15:54:03.643Z,3.31
2023-05-05T15:56:30.402Z,3.18
2023-05-05T15:58:57.203Z,3.14
2023-05-05T16:01:23.900Z,3.22
2023-05-05T16:03:50.671Z,3.16
2023-05-05T16:06:17.457Z,3.25
2023-05-05T16:08:46.639Z,3.14
2023-05-05T16:11:13.474Z,3.22
2023-05-05T16:13:40.293Z,3.15
2023-05-05T16:16:07.150Z,3.32
2023-05-05T16:18:33.974Z,3.25
2023-05-05T16:21:00.746Z,3.38
2023-05-05T16:23:27.561Z,3.43
2023-05-05T16:25:54.349Z,3.29
2023-05-05T16:28:21.034Z,3.50
2023-05-05T16:30:47.688Z,3.61
2023-05-05T16:33:14.367Z,3.55
2023-05-05T16:35:44.068Z,3.40
2023-05-05T16:38:11.231Z,3.17
2023-05-05T16:40:38.137Z,3.24
2023-05-05T16:43:04.977Z,3.44
2023-05-05T16:45:31.760Z,3.60
2023-05-05T16:47:58.525Z,3.50
2023-05-05T16:50:25.220Z,3.67
2023-05-05T16:52:52.090Z,3.68
2023-05-05T16:55:19.170Z,3.42
2023-05-05T16:57:45.834Z,3.79
2023-05-05T17:00:13.102Z,5.51
2023-05-05T17:02:39.913Z,5.93
2023-05-05T17:05:07.259Z,5.77
2023-05-05T17:07:34.189Z,5.87
2023-05-05T17:10:00.976Z,6.20
2023-05-05T17:12:27.695Z,6.56
2023-05-05T17:14:54.404Z,6.36
2023-05-05T17:17:21.213Z,6.17
2023-05-05T17:19:48.023Z,6.35
2023-05-05T17:22:14.770Z,6.78
2023-05-05T17:24:41.549Z,6.08
2023-05-05T17:27:08.376Z,6.28
2023-05-05T17:29:35.074Z,6.52
2023-05-05T17:32:02.021Z,5.90
2023-05-05T17:34:28.949Z,5.49
2023-05-05T17:36:55.716Z,5.97
2023-05-05T17:39:22.500Z,5.88
2023-05-05T17:41:49.277Z,5.90
2023-05-05T17:44:16.067Z,6.00
2023-05-05T17:46:42.774Z,6.39
2023-05-05T17:49:09.599Z,6.81
2023-05-05T17:51:36.338Z,6.93
2023-05-05T17:54:03.065Z,7.31
2023-05-05T17:56:29.879Z,6.83
2023-05-05T17:58:56.663Z,7.30
2023-05-05T18:01:24.003Z,7.06
2023-05-05T18:03:50.748Z,6.57
2023-05-05T18:06:17.564Z,7.28
2023-05-05T18:08:44.451Z,6.93
2023-05-05T18:11:11.238Z,7.12
2023-05-05T18:13:37.926Z,6.44
2023-05-05T18:16:05.002Z,6.43
2023-05-05T18:18:31.807Z,6.77
2023-05-05T18:20:58.578Z,6.17
2023-05-05T18:23:25.322Z,7.36
2023-05-05T18:25:52.106Z,18.12
2023-05-05T18:28:18.889Z,26.20
2023-05-05T18:30:45.661Z,24.87
2023-05-05T18:33:14.329Z,26.44
2023-05-05T18:35:41.106Z,31.17
2023-05-05T18:38:07.945Z,33.16
2023-05-05T18:40:34.713Z,32.54
2023-05-05T18:43:01.494Z,33.59
2023-05-05T18:45:28.212Z,33.39
2023-05-05T18:47:55.024Z,32.89
2023-05-05T18:50:21.987Z,31.43
2023-05-05T18:52:49.042Z,32.45
2023-05-05T18:55:15.821Z,32.94
2023-05-05T18:57:42.603Z,32.58
2023-05-05T19:00:10.262Z,31.22
2023-05-05T19:02:37.012Z,30.57
2023-05-05T19:05:04.059Z,31.90
2023-05-05T19:07:35.557Z,32.31
2023-05-05T19:10:04.050Z,32.06
2023-05-05T19:12:30.848Z,31.50
2023-05-05T19:14:57.560Z,31.14
2023-05-05T19:17:24.342Z,30.82
2023-05-05T19:19:51.067Z,30.92
2023-05-05T19:22:17.870Z,29.95
2023-05-05T19:24:44.570Z,30.30
2023-05-05T19:27:11.953Z,30.28
